createdAt,value
2019-04-26T00:01:40.291Z,4.23
2019-04-26T00:04:10.281Z,4.23
2019-04-26T00:06:39.669Z,3.77
2019-04-26T00:09:24.453Z,4.17
2019-04-26T00:12:07.043Z,4.40
2019-04-26T00:14:53.033Z,4.17
2019-04-26T00:17:24.167Z,3.70
2019-04-26T00:19:53.677Z,3.83
2019-04-26T00:22:23.399Z,4.20
2019-04-26T00:24:52.693Z,4.40
2019-04-26T00:27:21.993Z,4.27
2019-04-26T00:29:51.174Z,3.77
2019-04-26T00:32:21.377Z,4.23
2019-04-26T00:34:50.654Z,4.20
2019-04-26T00:37:20.219Z,3.90
2019-04-26T00:39:49.529Z,4.33
2019-04-26T00:42:19.023Z,4.17
2019-04-26T00:44:48.501Z,4.00
2019-04-26T00:47:19.566Z,4.00
2019-04-26T00:49:49.733Z,4.50
2019-04-26T00:52:19.524Z,4.23
2019-04-26T00:54:49.224Z,4.40
2019-04-26T00:57:20.208Z,4.40
2019-04-26T00:59:50.302Z,3.70
2019-04-26T01:02:25.189Z,4.53
2019-04-26T01:04:54.422Z,4.20
2019-04-26T01:07:23.713Z,4.37
2019-04-26T01:09:52.969Z,4.30
2019-04-26T01:12:22.207Z,5.00
2019-04-26T01:14:51.430Z,4.10
2019-04-26T01:17:20.698Z,4.50
2019-04-26T01:19:51.245Z,4.20
2019-04-26T01:22:23.515Z,4.53
2019-04-26T01:24:55.107Z,4.13
2019-04-26T01:27:27.791Z,4.50
2019-04-26T01:30:00.130Z,4.60
2019-04-26T01:32:31.681Z,4.53
2019-04-26T01:35:01.069Z,4.83
2019-04-26T01:37:31.933Z,4.33
2019-04-26T01:40:05.717Z,4.80
2019-04-26T01:42:43.567Z,5.63
2019-04-26T01:45:32.138Z,5.57
2019-04-26T01:48:04.492Z,4.77
2019-04-26T01:50:35.475Z,5.50
2019-04-26T01:53:05.959Z,5.03
2019-04-26T01:55:35.235Z,4.90
2019-04-26T01:58:06.558Z,4.93
2019-04-26T02:00:40.503Z,4.90
2019-04-26T02:03:17.609Z,5.40
2019-04-26T02:05:49.121Z,4.80
2019-04-26T02:08:18.565Z,5.50
2019-04-26T02:10:47.962Z,5.10
2019-04-26T02:13:17.553Z,5.17
2019-04-26T02:15:46.999Z,5.30
2019-04-26T02:18:16.235Z,5.00
2019-04-26T02:20:52.897Z,5.23
2019-04-26T02:23:26.601Z,5.23
2019-04-26T02:25:55.797Z,5.13
2019-04-26T02:28:26.645Z,5.33
2019-04-26T02:30:56.049Z,4.63
2019-04-26T02:33:27.489Z,5.07
2019-04-26T02:35:56.400Z,5.60
2019-04-26T02:38:27.890Z,5.97
2019-04-26T02:40:56.931Z,5.20
2019-04-26T02:43:28.619Z,5.07
2019-04-26T02:46:00.456Z,5.47
2019-04-26T02:48:35.942Z,5.60
2019-04-26T02:51:08.370Z,5.20
2019-04-26T02:53:55.767Z,5.07
2019-04-26T02:56:43.115Z,5.93
2019-04-26T02:59:15.382Z,5.53
2019-04-26T03:01:45.107Z,6.03
2019-04-26T03:04:14.720Z,5.63
2019-04-26T03:07:02.417Z,5.77
2019-04-26T03:09:17.870Z,5.77
2019-04-26T03:11:59.210Z,6.03
2019-04-26T03:14:31.230Z,6.40
2019-04-26T03:17:07.836Z,6.57
2019-04-26T03:19:44.547Z,6.13
2019-04-26T03:22:22.865Z,6.37
2019-04-26T03:24:56.226Z,6.80
2019-04-26T03:27:35.739Z,6.57
2019-04-26T03:30:20.970Z,6.50
2019-04-26T03:33:04.448Z,7.00
2019-04-26T03:36:02.686Z,6.20
2019-04-26T03:38:51.069Z,6.90
2019-04-26T03:41:35.119Z,6.80
2019-04-26T03:44:10.243Z,6.93
2019-04-26T03:46:43.661Z,7.13
2019-04-26T03:49:42.042Z,7.13
2019-04-26T03:52:23.332Z,5.90
2019-04-26T03:54:58.544Z,6.53
2019-04-26T03:57:56.424Z,7.50
2019-04-26T04:00:30.007Z,6.60
2019-04-26T04:03:09.832Z,6.37
2019-04-26T04:05:49.422Z,7.13
2019-04-26T04:08:21.701Z,6.80
2019-04-26T04:10:56.809Z,8.00
2019-04-26T04:13:44.423Z,7.57
2019-04-26T04:16:32.002Z,7.60
2019-04-26T04:19:21.956Z,8.30
2019-04-26T04:22:06.163Z,7.83
2019-04-26T04:24:39.723Z,7.67
2019-04-26T04:27:15.479Z,8.23
2019-04-26T04:29:55.654Z,8.20
2019-04-26T04:32:51.994Z,7.53
2019-04-26T04:35:24.345Z,7.47
2019-04-26T04:38:09.304Z,7.57
2019-04-26T04:40:49.232Z,8.13
2019-04-26T04:43:34.754Z,7.43
2019-04-26T04:46:08.899Z,7.37
2019-04-26T04:48:47.056Z,7.30
2019-04-26T04:51:46.229Z,7.50
2019-04-26T04:54:42.693Z,7.03
2019-04-26T04:57:15.096Z,6.83
2019-04-26T04:59:52.978Z,6.77
2019-04-26T05:02:50.798Z,7.20
2019-04-26T05:06:07.718Z,7.60
2019-04-26T05:08:59.653Z,7.60
2019-04-26T05:11:34.455Z,7.10
2019-04-26T05:14:26.073Z,7.77
2019-04-26T05:17:34.807Z,7.00
2019-04-26T05:20:18.681Z,7.50
2019-04-26T05:23:23.892Z,6.67
2019-04-26T05:26:17.393Z,6.37
2019-04-26T05:29:03.100Z,6.83
2019-04-26T05:31:54.299Z,7.30
2019-04-26T05:34:30.972Z,7.23
2019-04-26T05:37:19.597Z,7.27
2019-04-26T05:40:00.951Z,7.03
2019-04-26T05:43:03.572Z,6.93
2019-04-26T05:45:49.997Z,7.00
2019-04-26T05:48:51.924Z,8.40
2019-04-26T05:51:53.584Z,7.47
2019-04-26T05:54:52.235Z,7.30
2019-04-26T05:57:40.701Z,7.03
2019-04-26T06:00:26.278Z,7.37
2019-04-26T06:03:12.062Z,7.20
2019-04-26T06:06:12.413Z,7.07
2019-04-26T06:09:01.693Z,7.00
2019-04-26T06:11:44.897Z,6.90
2019-04-26T06:14:39.325Z,7.57
2019-04-26T06:17:28.144Z,6.90
2019-04-26T06:20:08.086Z,7.17
2019-04-26T06:23:01.858Z,6.50
2019-04-26T06:28:53.041Z,6.33
2019-04-26T06:31:31.390Z,7.23
2019-04-26T06:34:12.801Z,6.43
2019-04-26T06:36:53.249Z,6.77
2019-04-26T06:39:53.407Z,6.80
2019-04-26T06:42:54.767Z,5.90
2019-04-26T06:45:34.425Z,6.47
2019-04-26T06:48:40.407Z,6.40
2019-04-26T06:51:39.013Z,6.63
2019-04-26T06:54:14.810Z,6.30
2019-04-26T06:57:20.341Z,6.57
2019-04-26T07:00:18.329Z,6.20
2019-04-26T07:02:59.169Z,6.80
2019-04-26T07:05:31.455Z,6.13
2019-04-26T07:08:15.395Z,6.77
2019-04-26T07:11:03.371Z,6.30
2019-04-26T07:13:56.677Z,5.73
2019-04-26T07:16:29.175Z,5.97
2019-04-26T07:19:24.773Z,5.53
2019-04-26T07:22:16.525Z,5.90
2019-04-26T07:25:26.513Z,5.80
2019-04-26T07:28:06.479Z,5.47
2019-04-26T07:30:51.293Z,5.50
2019-04-26T07:33:39.640Z,6.00
2019-04-26T07:36:29.841Z,6.23
2019-04-26T07:39:26.917Z,6.53
2019-04-26T07:42:22.465Z,6.50
2019-04-26T07:45:05.563Z,7.10
2019-04-26T07:47:43.357Z,6.93
2019-04-26T07:50:36.177Z,7.57
2019-04-26T07:53:20.037Z,7.63
2019-04-26T07:55:57.793Z,9.17
2019-04-26T07:58:53.762Z,8.70
2019-04-26T08:01:51.631Z,8.70
2019-04-26T08:04:29.588Z,8.80
2019-04-26T08:07:10.792Z,8.20
2019-04-26T08:09:46.006Z,7.93
2019-04-26T08:12:17.099Z,8.50
2019-04-26T08:14:56.045Z,8.27
2019-04-26T08:17:42.006Z,8.90
2019-04-26T08:20:21.452Z,10.13
2019-04-26T08:22:53.797Z,7.97
2019-04-26T08:25:25.493Z,6.70
2019-04-26T08:27:58.050Z,6.93
2019-04-26T08:30:50.283Z,9.97
2019-04-26T08:33:27.063Z,11.53
2019-04-26T08:35:59.641Z,8.93
2019-04-26T08:38:29.890Z,8.23
2019-04-26T08:41:00.210Z,8.90
2019-04-26T08:43:45.707Z,8.37
2019-04-26T08:46:36.269Z,5.30
2019-04-26T08:49:13.119Z,5.87
2019-04-26T08:51:45.014Z,5.90
2019-04-26T08:54:20.022Z,6.60
2019-04-26T08:56:52.315Z,6.33
2019-04-26T08:59:30.372Z,5.87
2019-04-26T09:02:03.615Z,5.70
2019-04-26T09:04:43.228Z,5.47
2019-04-26T09:07:17.546Z,5.57
2019-04-26T09:09:57.099Z,5.30
2019-04-26T09:12:23.957Z,4.27
2019-04-26T09:14:56.018Z,4.87
2019-04-26T09:17:27.836Z,5.43
2019-04-26T09:19:58.088Z,4.33
2019-04-26T09:22:31.852Z,5.37
2019-04-26T09:25:03.667Z,5.10
2019-04-26T09:27:34.503Z,5.40
2019-04-26T09:30:10.153Z,4.93
2019-04-26T09:32:43.851Z,4.77
2019-04-26T09:35:15.234Z,4.70
2019-04-26T09:37:44.306Z,3.83
2019-04-26T09:40:21.040Z,3.63
2019-04-26T09:42:52.630Z,4.67
2019-04-26T09:45:23.573Z,4.40
2019-04-26T09:48:00.145Z,3.90
2019-04-26T09:50:45.944Z,4.10
2019-04-26T09:53:15.586Z,4.07
2019-04-26T09:55:44.804Z,4.10
2019-04-26T09:58:14.038Z,5.23
2019-04-26T10:00:44.189Z,4.90
2019-04-26T10:03:14.678Z,3.87
2019-04-26T10:05:43.887Z,3.70
2019-04-26T10:08:14.523Z,4.43
2019-04-26T10:10:43.917Z,3.73
2019-04-26T10:13:23.970Z,4.10
2019-04-26T10:15:58.054Z,3.93
2019-04-26T10:18:26.065Z,3.77
2019-04-26T10:20:55.297Z,3.87
2019-04-26T10:23:24.556Z,3.13
2019-04-26T10:25:53.752Z,4.00
2019-04-26T10:28:23.042Z,3.90
2019-04-26T10:30:52.375Z,3.70
2019-04-26T10:33:21.573Z,3.30
2019-04-26T10:35:52.459Z,3.50
2019-04-26T10:38:23.709Z,3.60
2019-04-26T10:40:52.877Z,3.50
2019-04-26T10:43:22.447Z,3.97
2019-04-26T10:45:53.995Z,3.73
2019-04-26T10:48:23.382Z,3.83
2019-04-26T10:50:52.702Z,4.43
2019-04-26T10:53:35.518Z,3.73
2019-04-26T10:56:24.169Z,4.20
2019-04-26T10:59:06.128Z,3.60
2019-04-26T11:01:36.145Z,3.20
2019-04-26T11:04:05.393Z,3.27
2019-04-26T11:06:34.690Z,3.23
2019-04-26T11:09:06.001Z,3.80
2019-04-26T11:11:36.262Z,3.33
2019-04-26T11:14:05.643Z,4.43
2019-04-26T11:16:37.206Z,4.63
2019-04-26T11:19:06.282Z,5.13
2019-04-26T11:21:35.512Z,4.50
2019-04-26T11:24:04.812Z,5.23
2019-04-26T11:26:34.836Z,5.03
2019-04-26T11:29:05.445Z,4.70
2019-04-26T11:31:34.664Z,4.50
2019-04-26T11:34:05.405Z,4.90
2019-04-26T11:36:37.685Z,5.50
2019-04-26T11:39:09.514Z,6.10
2019-04-26T11:41:39.122Z,5.63
2019-04-26T11:44:08.489Z,6.10
2019-04-26T11:46:44.578Z,6.37
2019-04-26T11:49:15.607Z,5.73
2019-04-26T11:51:44.922Z,5.70
2019-04-26T11:54:16.907Z,5.77
2019-04-26T11:56:45.144Z,6.27
2019-04-26T11:59:14.400Z,6.73
2019-04-26T12:01:43.723Z,6.00
2019-04-26T12:04:17.074Z,5.80
2019-04-26T12:06:47.947Z,6.27
2019-04-26T12:09:33.034Z,6.10
2019-04-26T12:12:04.891Z,6.20
2019-04-26T12:14:34.502Z,6.80
2019-04-26T12:17:04.911Z,6.03
2019-04-26T12:19:34.493Z,6.07
2019-04-26T12:22:04.177Z,5.87
2019-04-26T12:24:34.833Z,5.80
2019-04-26T12:27:04.262Z,4.73
2019-04-26T12:29:33.842Z,4.70
2019-04-26T12:32:03.142Z,5.27
2019-04-26T12:34:32.427Z,4.90
2019-04-26T12:37:01.626Z,3.87
2019-04-26T12:39:32.387Z,4.73
2019-04-26T12:42:01.765Z,5.10
2019-04-26T12:44:36.807Z,5.30
2019-04-26T12:47:05.392Z,5.93
2019-04-26T12:49:35.547Z,5.17
2019-04-26T12:52:05.017Z,5.40
2019-04-26T12:54:34.251Z,5.33
2019-04-26T12:57:05.867Z,4.57
2019-04-26T12:59:43.946Z,3.80
2019-04-26T13:02:06.360Z,3.00
2019-04-26T13:04:36.603Z,2.60
2019-04-26T13:07:22.782Z,2.70
2019-04-26T13:09:43.545Z,2.23
2019-04-26T13:12:14.451Z,2.30
2019-04-26T13:14:54.162Z,2.30
2019-04-26T13:17:25.178Z,2.17
2019-04-26T13:19:55.495Z,2.30
2019-04-26T13:22:24.825Z,2.30
2019-04-26T13:24:54.228Z,2.53
2019-04-26T13:27:23.510Z,1.97
2019-04-26T13:30:01.909Z,2.27
2019-04-26T13:32:23.703Z,2.30
2019-04-26T13:34:52.941Z,1.70
2019-04-26T13:37:22.281Z,1.60
2019-04-26T13:39:55.191Z,1.87
2019-04-26T13:42:40.445Z,2.00
2019-04-26T13:45:17.687Z,1.83
2019-04-26T13:47:59.364Z,1.97
2019-04-26T13:50:35.940Z,2.00
2019-04-26T13:53:05.264Z,2.60
2019-04-26T13:55:34.620Z,2.30
2019-04-26T13:58:03.944Z,2.07
2019-04-26T14:00:33.672Z,1.73
2019-04-26T14:03:02.908Z,1.70
2019-04-26T14:05:32.163Z,2.13
2019-04-26T14:08:01.443Z,2.50
2019-04-26T14:10:30.673Z,2.40
2019-04-26T14:12:59.865Z,2.37
2019-04-26T14:15:29.281Z,2.90
2019-04-26T14:18:00.275Z,2.37
2019-04-26T14:20:47.239Z,2.87
2019-04-26T14:23:34.254Z,2.63
2019-04-26T14:26:11.032Z,3.40
2019-04-26T14:28:42.014Z,3.20
2019-04-26T14:31:12.375Z,3.23
2019-04-26T14:33:42.291Z,3.07
2019-04-26T14:36:17.919Z,3.07
2019-04-26T14:38:42.487Z,3.40
2019-04-26T14:41:13.465Z,4.30
2019-04-26T14:43:42.705Z,3.80
2019-04-26T14:46:14.679Z,3.37
2019-04-26T14:48:44.623Z,3.67
2019-04-26T14:51:16.888Z,3.40
2019-04-26T14:53:45.926Z,3.43
2019-04-26T14:56:16.239Z,3.50
2019-04-26T14:58:45.549Z,3.73
2019-04-26T15:01:16.513Z,3.50
2019-04-26T15:03:57.101Z,4.00
2019-04-26T15:06:28.193Z,3.90
2019-04-26T15:08:57.470Z,4.23
2019-04-26T15:11:26.690Z,3.93
2019-04-26T15:13:55.922Z,3.30
2019-04-26T15:16:25.229Z,3.47
2019-04-26T15:18:54.495Z,3.33
2019-04-26T15:21:27.379Z,3.90
2019-04-26T15:23:55.382Z,4.20
2019-04-26T15:26:29.794Z,4.30
2019-04-26T15:28:56.713Z,3.90
2019-04-26T15:31:26.054Z,4.10
2019-04-26T15:33:55.213Z,4.40
2019-04-26T15:36:24.494Z,4.40
2019-04-26T15:38:54.015Z,4.53
2019-04-26T15:41:33.666Z,4.23
2019-04-26T15:44:13.723Z,4.27
2019-04-26T15:47:03.337Z,4.03
2019-04-26T15:49:37.234Z,3.87
2019-04-26T15:52:06.571Z,4.10
2019-04-26T15:54:37.331Z,3.33
2019-04-26T15:57:06.792Z,4.70
2019-04-26T15:59:36.165Z,4.30
2019-04-26T16:02:05.608Z,3.53
2019-04-26T16:04:34.957Z,3.07
2019-04-26T16:07:04.403Z,2.57
2019-04-26T16:09:33.728Z,2.47
2019-04-26T16:12:03.641Z,2.30
2019-04-26T16:14:36.633Z,2.47
2019-04-26T16:17:06.581Z,2.27
2019-04-26T16:19:35.316Z,2.43
2019-04-26T16:22:04.952Z,2.00
2019-04-26T16:24:34.639Z,2.20
2019-04-26T16:27:04.007Z,2.30
2019-04-26T16:29:37.559Z,2.27
2019-04-26T16:32:08.638Z,2.00
2019-04-26T16:34:47.571Z,2.30
2019-04-26T16:37:14.979Z,2.27
2019-04-26T16:39:48.411Z,2.53
2019-04-26T16:42:15.060Z,2.63
2019-04-26T16:44:45.072Z,2.70
2019-04-26T16:47:14.499Z,2.67
2019-04-26T16:49:46.455Z,2.67
2019-04-26T16:52:14.714Z,2.80
2019-04-26T16:54:46.058Z,3.73
2019-04-26T16:57:15.330Z,2.60
2019-04-26T16:59:49.189Z,2.90
2019-04-26T17:02:20.946Z,2.97
2019-04-26T17:04:46.822Z,3.20
2019-04-26T17:07:21.881Z,3.03
2019-04-26T17:09:58.963Z,2.80
2019-04-26T17:12:19.878Z,2.90
2019-04-26T17:14:49.463Z,2.83
2019-04-26T17:17:19.115Z,2.50
2019-04-26T17:19:49.933Z,2.83
2019-04-26T17:22:23.624Z,2.60
2019-04-26T17:25:00.107Z,2.83
2019-04-26T17:27:29.380Z,2.27
2019-04-26T17:29:58.601Z,2.00
2019-04-26T17:32:27.998Z,2.40
2019-04-26T17:34:59.489Z,2.20
2019-04-26T17:37:34.213Z,2.50
2019-04-26T17:40:03.604Z,2.40
2019-04-26T17:42:36.387Z,2.80
2019-04-26T17:45:07.043Z,1.80
2019-04-26T17:47:39.888Z,1.87
2019-04-26T17:50:07.841Z,2.00
2019-04-26T17:52:37.788Z,2.00
2019-04-26T17:55:07.728Z,2.10
2019-04-26T17:57:43.533Z,2.50
2019-04-26T18:00:13.755Z,2.40
2019-04-26T18:02:47.707Z,2.33
2019-04-26T18:05:13.012Z,3.00
2019-04-26T18:07:50.257Z,3.13
2019-04-26T18:10:13.820Z,2.90
2019-04-26T18:12:47.157Z,2.53
2019-04-26T18:15:19.271Z,2.80
2019-04-26T18:18:09.660Z,2.07
2019-04-26T18:20:50.555Z,2.00
2019-04-26T18:23:21.423Z,2.13
2019-04-26T18:25:50.673Z,1.87
2019-04-26T18:28:19.977Z,1.93
2019-04-26T18:30:49.192Z,1.97
2019-04-26T18:33:22.465Z,1.87
2019-04-26T18:35:55.862Z,1.83
2019-04-26T18:38:20.882Z,1.70
2019-04-26T18:41:01.123Z,1.80
2019-04-26T18:43:24.252Z,1.60
2019-04-26T18:45:54.429Z,1.63
2019-04-26T18:48:24.117Z,1.50
2019-04-26T18:50:55.284Z,1.50
2019-04-26T18:53:39.455Z,1.83
2019-04-26T18:56:07.754Z,1.80
2019-04-26T18:58:38.567Z,1.60
2019-04-26T19:01:10.389Z,2.00
2019-04-26T19:03:39.597Z,1.50
2019-04-26T19:06:08.903Z,1.70
2019-04-26T19:08:47.710Z,1.97
2019-04-26T19:11:11.719Z,1.40
2019-04-26T19:13:56.335Z,1.67
2019-04-26T19:16:26.692Z,1.40
2019-04-26T19:18:59.987Z,1.70
2019-04-26T19:21:32.349Z,1.60
2019-04-26T19:24:07.357Z,1.90
2019-04-26T19:26:34.964Z,1.53
2019-04-26T19:29:15.534Z,1.40
2019-04-26T19:31:35.879Z,1.67
2019-04-26T19:34:05.235Z,1.70
2019-04-26T19:36:35.663Z,1.60
2019-04-26T19:39:06.925Z,1.77
2019-04-26T19:41:36.179Z,1.70
2019-04-26T19:44:05.766Z,1.80
2019-04-26T19:46:36.707Z,2.00
2019-04-26T19:49:25.757Z,2.03
2019-04-26T19:52:03.888Z,1.50
2019-04-26T19:54:43.972Z,1.40
2019-04-26T19:57:24.108Z,1.70
2019-04-26T19:59:53.440Z,1.97
2019-04-26T20:02:26.832Z,1.80
2019-04-26T20:04:53.675Z,1.77
2019-04-26T20:07:24.156Z,2.40
2019-04-26T20:09:56.265Z,2.10
2019-04-26T20:12:25.342Z,2.00
2019-04-26T20:14:58.432Z,2.10
2019-04-26T20:17:25.524Z,2.30
2019-04-26T20:19:55.631Z,2.00
2019-04-26T20:22:28.444Z,2.03
2019-04-26T20:24:57.563Z,1.73
2019-04-26T20:27:28.025Z,1.83
2019-04-26T20:29:58.441Z,2.00
2019-04-26T20:32:29.626Z,1.97
2019-04-26T20:35:00.520Z,2.30
2019-04-26T20:37:29.816Z,2.50
2019-04-26T20:40:16.186Z,2.43
2019-04-26T20:42:31.553Z,2.23
2019-04-26T20:45:04.479Z,2.13
2019-04-26T20:47:32.111Z,2.63
2019-04-26T20:50:03.022Z,2.93
2019-04-26T20:52:32.318Z,2.40
2019-04-26T20:55:01.682Z,2.27
2019-04-26T20:57:34.374Z,2.37
2019-04-26T21:00:05.336Z,2.40
2019-04-26T21:02:32.894Z,3.00
2019-04-26T21:05:05.907Z,2.53
2019-04-26T21:07:33.092Z,2.27
2019-04-26T21:10:02.468Z,2.50
2019-04-26T21:12:31.699Z,2.30
2019-04-26T21:15:02.432Z,2.47
2019-04-26T21:17:32.321Z,2.83
2019-04-26T21:20:02.292Z,2.67
2019-04-26T21:22:31.827Z,2.40
2019-04-26T21:25:05.596Z,2.53
2019-04-26T21:27:36.506Z,2.87
2019-04-26T21:30:24.139Z,2.40
2019-04-26T21:32:59.346Z,2.33
2019-04-26T21:35:46.531Z,2.67
2019-04-26T21:38:29.675Z,2.57
2019-04-26T21:41:15.042Z,2.37
2019-04-26T21:43:45.040Z,2.60
2019-04-26T21:46:19.008Z,2.83
2019-04-26T21:48:45.213Z,2.80
2019-04-26T21:51:16.065Z,3.30
2019-04-26T21:53:45.496Z,2.80
2019-04-26T21:56:14.969Z,2.87
2019-04-26T21:58:46.177Z,3.07
2019-04-26T22:01:19.281Z,3.10
2019-04-26T22:03:54.469Z,3.17
2019-04-26T22:06:23.996Z,3.07
2019-04-26T22:08:56.622Z,3.57
2019-04-26T22:11:23.715Z,3.03
2019-04-26T22:14:00.286Z,3.60
2019-04-26T22:16:40.023Z,3.33
2019-04-26T22:19:14.586Z,3.03
2019-04-26T22:21:52.729Z,3.13
2019-04-26T22:24:35.668Z,3.40
2019-04-26T22:27:05.014Z,3.33
2019-04-26T22:29:34.191Z,3.50
2019-04-26T22:32:03.775Z,3.00
2019-04-26T22:34:33.100Z,3.30
2019-04-26T22:37:11.103Z,3.90
2019-04-26T22:39:39.905Z,3.80
2019-04-26T22:42:04.538Z,3.30
2019-04-26T22:44:37.970Z,4.10
2019-04-26T22:47:08.813Z,4.10
2019-04-26T22:49:41.899Z,3.77
2019-04-26T22:52:11.232Z,3.67
2019-04-26T22:54:42.935Z,4.40
2019-04-26T22:57:13.028Z,3.90
2019-04-26T22:59:43.242Z,3.93
2019-04-26T23:02:18.396Z,4.17
2019-04-26T23:04:45.745Z,3.63
2019-04-26T23:07:21.101Z,3.50
2019-04-26T23:09:52.046Z,3.77
2019-04-26T23:12:27.924Z,3.60
2019-04-26T23:15:10.679Z,3.83
2019-04-26T23:17:59.484Z,3.97
2019-04-26T23:20:37.604Z,4.03
2019-04-26T23:23:08.342Z,3.87
2019-04-26T23:25:35.594Z,3.90
2019-04-26T23:28:04.811Z,3.73
2019-04-26T23:30:34.020Z,3.60
2019-04-26T23:33:03.233Z,4.10
2019-04-26T23:35:37.502Z,3.77
2019-04-26T23:38:05.234Z,3.70
2019-04-26T23:40:34.265Z,3.40
2019-04-26T23:43:03.475Z,3.63
2019-04-26T23:45:33.301Z,4.00
2019-04-26T23:48:03.535Z,4.10
2019-04-26T23:50:34.086Z,3.87
2019-04-26T23:53:03.426Z,3.63
2019-04-26T23:55:33.809Z,3.60
2019-04-26T23:58:06.471Z,4.10
